Airport View

Enter AWOS ICAO identifier for current METAR.

ex. KFNL

KHWY 262325Z AUTO 32004KT 10SM OVC050 07/M02 A2989 RMK AO2 T00691023

26 Jan 2020 23:26

Frequency: 120.350

Phone: 540-788-4078

Other Area AWOS: KCJR - KHEF - KRMN - KNYG

TAF KNYG 2421/2521 10008KT 9999 BKN015 OVC030 QNH3003INS TEMPO 2421/2503 9000 RA BR OVC015 FM250400 14015G25KT 6000 RA BR OVC006 QNH2997INS BECMG 2507/2509 16010KT 3200 +RA BR OVC004 QNH2978INS TEMPO 2509/2514 16020G30KT 1600 +RA BR OVC002 FM251700 31012G20KT 9999 NSW BKN020 QNH2972INS T09/2415Z T13/2509Z